createdAt,value
2022-11-10T00:01:34.582Z,66.20
2022-11-10T00:04:56.476Z,66.43
2022-11-10T00:08:18.241Z,66.38
2022-11-10T00:11:40.150Z,66.48
2022-11-10T00:15:20.386Z,66.39
2022-11-10T00:18:42.282Z,66.52
2022-11-10T00:22:03.918Z,66.50
2022-11-10T00:25:26.727Z,66.58
2022-11-10T00:28:48.001Z,66.73
2022-11-10T00:32:09.941Z,66.55
2022-11-10T00:35:31.693Z,66.71
2022-11-10T00:38:53.134Z,66.71
2022-11-10T00:42:15.067Z,66.83
2022-11-10T00:45:36.505Z,66.67
2022-11-10T00:48:58.380Z,66.77
2022-11-10T00:52:20.299Z,66.66
2022-11-10T00:55:42.692Z,66.86
2022-11-10T00:59:04.577Z,66.83
2022-11-10T01:02:26.453Z,66.84
2022-11-10T01:05:48.161Z,66.81
2022-11-10T01:09:09.729Z,66.79
2022-11-10T01:12:31.890Z,66.67
2022-11-10T01:15:53.615Z,66.87
2022-11-10T01:19:15.325Z,66.89
2022-11-10T01:22:36.953Z,66.73
2022-11-10T01:26:00.373Z,66.70
2022-11-10T01:29:22.174Z,66.73
2022-11-10T01:32:44.082Z,66.73
2022-11-10T01:36:07.044Z,66.69
2022-11-10T01:39:28.406Z,66.77
2022-11-10T01:42:56.646Z,66.75
2022-11-10T01:46:18.170Z,66.86
2022-11-10T01:49:39.840Z,66.78
2022-11-10T01:53:05.097Z,66.91
2022-11-10T01:56:29.978Z,66.79
2022-11-10T01:59:51.502Z,66.76
2022-11-10T02:03:24.175Z,66.69
2022-11-10T02:06:48.487Z,66.83
2022-11-10T02:10:16.757Z,66.82
2022-11-10T02:13:38.478Z,66.91
2022-11-10T02:17:00.726Z,66.85
2022-11-10T02:20:22.462Z,66.88
2022-11-10T02:23:50.674Z,66.84
2022-11-10T02:27:11.943Z,66.72
2022-11-10T02:30:33.209Z,66.82
2022-11-10T02:33:54.968Z,66.78
2022-11-10T02:37:17.234Z,66.90
2022-11-10T02:40:38.710Z,66.96
2022-11-10T02:44:00.915Z,67.09
2022-11-10T02:47:23.619Z,67.14
2022-11-10T02:50:45.405Z,67.13
2022-11-10T02:54:07.265Z,67.11
2022-11-10T02:57:28.964Z,67.07
2022-11-10T03:00:50.586Z,67.19
2022-11-10T03:04:12.186Z,67.24
2022-11-10T03:07:34.122Z,67.24
2022-11-10T03:10:56.756Z,67.18
2022-11-10T03:14:18.550Z,67.29
2022-11-10T03:17:41.041Z,67.31
2022-11-10T03:21:02.802Z,67.31
2022-11-10T03:24:24.736Z,67.34
2022-11-10T03:27:46.630Z,67.28
2022-11-10T03:31:08.504Z,67.33
2022-11-10T03:34:31.953Z,67.34
2022-11-10T03:37:54.025Z,67.40
2022-11-10T03:41:20.087Z,67.50
2022-11-10T03:44:42.447Z,67.47
2022-11-10T03:48:04.034Z,67.43
2022-11-10T03:51:25.688Z,67.28
2022-11-10T03:54:47.148Z,67.38
2022-11-10T03:58:08.782Z,67.46
2022-11-10T04:01:30.585Z,67.53
2022-11-10T04:05:11.128Z,67.57
2022-11-10T04:08:51.061Z,67.69
2022-11-10T04:12:31.095Z,67.59
2022-11-10T04:15:52.705Z,67.58
2022-11-10T04:19:14.511Z,67.78
2022-11-10T04:22:54.361Z,67.80
2022-11-10T04:26:32.783Z,67.78
2022-11-10T04:29:54.134Z,67.78
2022-11-10T04:33:15.673Z,67.78
2022-11-10T04:36:38.856Z,67.88
2022-11-10T04:40:00.428Z,67.86
2022-11-10T04:43:22.521Z,67.88
2022-11-10T04:46:44.655Z,67.85
2022-11-10T04:50:06.887Z,67.94
2022-11-10T04:53:28.761Z,68.00
2022-11-10T04:56:50.320Z,67.95
2022-11-10T05:00:12.984Z,67.98
2022-11-10T05:03:34.485Z,68.01
2022-11-10T05:06:56.239Z,68.01
2022-11-10T05:10:18.028Z,67.95
2022-11-10T05:13:40.056Z,68.01
2022-11-10T05:17:01.660Z,68.18
2022-11-10T05:20:25.454Z,68.20
2022-11-10T05:23:46.750Z,67.99
2022-11-10T05:27:08.546Z,68.08
2022-11-10T05:30:30.193Z,68.21
2022-11-10T05:33:51.629Z,68.20
2022-11-10T05:37:13.382Z,68.30
2022-11-10T05:40:35.399Z,68.31
2022-11-10T05:43:56.884Z,68.44
2022-11-10T05:47:18.262Z,68.47
2022-11-10T05:50:40.196Z,68.51
2022-11-10T05:54:02.025Z,68.62
2022-11-10T05:57:23.839Z,68.62
2022-11-10T06:00:45.499Z,68.71
2022-11-10T06:04:07.058Z,68.68
2022-11-10T06:07:28.641Z,68.83
2022-11-10T06:10:50.421Z,68.95
2022-11-10T06:14:12.167Z,68.91
2022-11-10T06:17:34.125Z,69.14
2022-11-10T06:20:55.758Z,69.14
2022-11-10T06:24:17.730Z,69.29
2022-11-10T06:27:43.337Z,69.35
2022-11-10T06:31:05.218Z,69.49
2022-11-10T06:34:27.374Z,69.55
2022-11-10T06:38:06.562Z,69.66
2022-11-10T06:41:28.253Z,69.71
2022-11-10T06:44:49.910Z,69.83
2022-11-10T06:48:14.147Z,70.01
2022-11-10T06:51:37.106Z,69.92
2022-11-10T06:54:59.309Z,70.11
2022-11-10T06:58:20.747Z,70.28
2022-11-10T07:01:42.324Z,70.12
2022-11-10T07:05:04.532Z,70.41
2022-11-10T07:08:26.112Z,70.39
2022-11-10T07:11:47.848Z,70.54
2022-11-10T07:15:10.083Z,70.41
2022-11-10T07:18:31.834Z,70.72
2022-11-10T07:21:53.673Z,70.69
2022-11-10T07:25:15.563Z,70.99
2022-11-10T07:28:37.417Z,70.82
2022-11-10T07:31:59.585Z,70.88
2022-11-10T07:35:21.033Z,70.99
2022-11-10T07:38:42.705Z,71.16
2022-11-10T07:42:04.455Z,70.98
2022-11-10T07:45:27.434Z,71.26
2022-11-10T07:48:49.208Z,71.25
2022-11-10T07:52:11.084Z,71.32
2022-11-10T07:55:33.770Z,71.50
2022-11-10T07:58:55.809Z,71.57
2022-11-10T08:02:17.460Z,71.67
2022-11-10T08:05:40.208Z,71.58
2022-11-10T08:09:03.712Z,71.57
2022-11-10T08:12:29.927Z,71.79
2022-11-10T08:15:54.388Z,71.82
2022-11-10T08:19:15.738Z,71.63
2022-11-10T08:22:37.141Z,71.91
2022-11-10T08:26:01.032Z,72.05
2022-11-10T08:29:22.799Z,71.81
2022-11-10T08:32:44.498Z,72.10
2022-11-10T08:36:06.576Z,72.18
2022-11-10T08:39:38.663Z,72.18
2022-11-10T08:43:01.823Z,71.92
2022-11-10T08:46:23.464Z,72.14
2022-11-10T08:49:44.962Z,72.20
2022-11-10T08:53:10.526Z,72.35
2022-11-10T08:56:32.228Z,72.25
2022-11-10T08:59:53.815Z,72.24
2022-11-10T09:03:18.768Z,72.38
2022-11-10T09:06:40.602Z,72.32
2022-11-10T09:10:07.883Z,72.47
2022-11-10T09:13:31.250Z,72.50
2022-11-10T09:16:53.018Z,72.42
2022-11-10T09:20:15.250Z,72.48
2022-11-10T09:23:36.836Z,72.63
2022-11-10T09:26:58.501Z,72.53
2022-11-10T09:30:20.300Z,72.74
2022-11-10T09:33:41.872Z,72.65
2022-11-10T09:37:03.899Z,72.75
2022-11-10T09:40:48.868Z,72.74
2022-11-10T09:44:25.047Z,72.85
2022-11-10T09:47:58.385Z,72.94
2022-11-10T09:51:35.189Z,72.92
2022-11-10T09:55:04.524Z,72.93
2022-11-10T09:58:33.625Z,72.89
2022-11-10T10:01:58.190Z,72.93
2022-11-10T10:05:35.229Z,72.81
2022-11-10T10:09:44.692Z,72.79
2022-11-10T10:13:06.416Z,72.79
2022-11-10T10:16:43.067Z,72.79
2022-11-10T10:20:20.014Z,72.84
2022-11-10T10:27:34.947Z,72.95
2022-11-10T10:31:15.304Z,72.98
2022-11-10T10:34:37.127Z,73.10
2022-11-10T10:38:00.980Z,73.14
2022-11-10T10:41:27.433Z,73.10
2022-11-10T10:45:13.660Z,72.92
2022-11-10T10:48:38.606Z,72.89
2022-11-10T10:52:14.328Z,72.64
2022-11-10T10:55:37.219Z,72.79
2022-11-10T10:59:04.884Z,72.72
2022-11-10T11:02:34.207Z,72.78
2022-11-10T11:06:21.291Z,72.79
2022-11-10T11:09:44.565Z,72.86
2022-11-10T11:13:16.135Z,72.70
2022-11-10T11:16:49.859Z,72.74
2022-11-10T11:20:15.449Z,72.82
2022-11-10T11:24:01.635Z,72.74
2022-11-10T11:27:57.070Z,72.63
2022-11-10T11:31:24.720Z,72.42
2022-11-10T11:34:49.358Z,72.55
2022-11-10T11:38:15.437Z,72.46
2022-11-10T11:42:18.514Z,72.57
2022-11-10T11:46:31.111Z,72.43
2022-11-10T11:50:01.548Z,72.67
2022-11-10T11:54:04.481Z,72.70
2022-11-10T11:57:41.053Z,72.41
2022-11-10T12:01:11.856Z,72.09
2022-11-10T12:05:03.956Z,72.04
2022-11-10T12:08:42.950Z,71.90
2022-11-10T12:12:17.173Z,71.54
2022-11-10T12:15:43.330Z,71.24
2022-11-10T12:19:23.702Z,71.08
2022-11-10T12:23:13.217Z,70.81
2022-11-10T12:26:43.526Z,70.42
2022-11-10T12:30:11.824Z,70.31
2022-11-10T12:33:45.676Z,70.24
2022-11-10T12:37:18.058Z,70.14
2022-11-10T12:40:48.659Z,69.95
2022-11-10T12:44:31.152Z,69.81
2022-11-10T12:47:55.353Z,69.63
2022-11-10T12:51:48.011Z,69.61
2022-11-10T12:55:21.347Z,69.51
2022-11-10T12:58:43.202Z,69.56
2022-11-10T13:02:25.140Z,69.48
2022-11-10T13:05:55.768Z,69.45
2022-11-10T13:09:31.283Z,69.28
2022-11-10T13:13:05.295Z,69.32
2022-11-10T13:16:54.529Z,69.19
2022-11-10T13:20:46.416Z,68.92
2022-11-10T13:24:19.802Z,68.76
2022-11-10T13:27:41.561Z,68.71
2022-11-10T13:31:28.701Z,68.69
2022-11-10T13:34:50.519Z,68.58
2022-11-10T13:38:38.152Z,68.68
2022-11-10T13:42:03.120Z,68.63
2022-11-10T13:45:44.782Z,68.55
2022-11-10T13:49:25.052Z,68.59
2022-11-10T13:52:59.130Z,68.48
2022-11-10T13:56:50.038Z,68.45
2022-11-10T14:00:14.793Z,68.26
2022-11-10T14:03:45.600Z,68.30
2022-11-10T14:07:17.690Z,68.25
2022-11-10T14:11:11.498Z,68.23
2022-11-10T14:14:51.527Z,68.20
2022-11-10T14:18:25.118Z,68.06
2022-11-10T14:22:03.618Z,67.93
2022-11-10T14:25:40.002Z,67.93
2022-11-10T14:29:32.392Z,67.94
2022-11-10T14:33:06.619Z,68.17
2022-11-10T14:36:28.142Z,68.07
2022-11-10T14:40:15.572Z,68.03
2022-11-10T14:43:39.613Z,68.06
2022-11-10T14:47:24.581Z,68.07
2022-11-10T14:50:46.991Z,68.14
2022-11-10T14:54:12.707Z,68.06
2022-11-10T14:57:34.674Z,68.28
2022-11-10T15:00:56.252Z,68.08
2022-11-10T15:04:18.365Z,68.12
2022-11-10T15:07:40.773Z,68.06
2022-11-10T15:11:02.415Z,68.18
2022-11-10T15:14:46.952Z,68.15
2022-11-10T15:18:30.152Z,68.32
2022-11-10T15:21:52.222Z,68.24
2022-11-10T15:25:18.388Z,68.26
2022-11-10T15:28:42.363Z,68.22
2022-11-10T15:32:07.120Z,68.34
2022-11-10T15:35:32.328Z,68.50
2022-11-10T15:39:15.616Z,68.22
2022-11-10T15:42:37.387Z,68.38
2022-11-10T15:46:03.403Z,68.47
2022-11-10T15:49:33.905Z,68.31
2022-11-10T15:52:56.317Z,68.32
2022-11-10T15:56:23.644Z,68.28
2022-11-10T15:59:45.704Z,68.30
2022-11-10T16:03:10.787Z,68.01
2022-11-10T16:06:32.845Z,68.02
2022-11-10T16:09:54.453Z,67.94
2022-11-10T16:13:24.135Z,67.84
2022-11-10T16:16:46.420Z,67.87
2022-11-10T16:20:14.621Z,67.86
2022-11-10T16:23:36.087Z,67.71
2022-11-10T16:26:58.116Z,67.78
2022-11-10T16:30:19.766Z,67.84
2022-11-10T16:33:41.655Z,67.85
2022-11-10T16:37:03.471Z,67.95
2022-11-10T16:40:25.154Z,67.97
2022-11-10T16:43:46.870Z,67.97
2022-11-10T16:47:18.555Z,68.06
2022-11-10T16:50:40.189Z,67.93
2022-11-10T16:54:01.757Z,67.97
2022-11-10T16:57:23.847Z,68.00
2022-11-10T17:00:48.258Z,68.12
2022-11-10T17:04:13.980Z,68.43
2022-11-10T17:07:36.073Z,68.52
2022-11-10T17:10:58.429Z,68.49
2022-11-10T17:14:20.637Z,68.34
2022-11-10T17:17:45.578Z,68.36
2022-11-10T17:21:07.662Z,68.12
2022-11-10T17:24:29.730Z,68.19
2022-11-10T17:27:51.874Z,68.13
2022-11-10T17:31:14.565Z,68.03
2022-11-10T17:34:36.303Z,67.81
2022-11-10T17:37:59.611Z,67.78
2022-11-10T17:41:21.905Z,67.93
2022-11-10T17:44:44.493Z,67.94
2022-11-10T17:48:08.085Z,68.09
2022-11-10T17:51:32.864Z,68.05
2022-11-10T17:54:54.530Z,68.14
2022-11-10T17:58:17.153Z,68.10
2022-11-10T18:01:38.847Z,68.03
2022-11-10T18:05:00.471Z,67.95
2022-11-10T18:08:22.275Z,67.99
2022-11-10T18:11:43.915Z,67.96
2022-11-10T18:15:05.647Z,67.86
2022-11-10T18:18:59.497Z,67.85
2022-11-10T18:22:44.518Z,67.83
2022-11-10T18:26:11.445Z,67.86
2022-11-10T18:29:32.914Z,67.81
2022-11-10T18:32:54.603Z,67.71
2022-11-10T18:36:16.585Z,67.68
2022-11-10T18:39:38.454Z,67.57
2022-11-10T18:43:05.939Z,67.66
2022-11-10T18:46:28.787Z,67.49
2022-11-10T18:49:50.344Z,67.37
2022-11-10T18:53:12.001Z,67.38
2022-11-10T18:56:33.609Z,67.47
2022-11-10T18:59:55.634Z,67.43
2022-11-10T19:03:17.060Z,67.26
2022-11-10T19:06:39.032Z,67.49
2022-11-10T19:10:01.254Z,67.23
2022-11-10T19:13:24.206Z,67.40
2022-11-10T19:16:49.309Z,67.22
2022-11-10T19:20:12.946Z,67.17
2022-11-10T19:23:34.833Z,67.33
2022-11-10T19:26:56.728Z,67.22
2022-11-10T19:30:18.534Z,67.18
2022-11-10T19:33:42.586Z,67.10
2022-11-10T19:37:04.295Z,67.40
2022-11-10T19:40:25.901Z,67.42
2022-11-10T19:43:47.927Z,67.37
2022-11-10T19:47:09.751Z,67.38
2022-11-10T19:50:31.038Z,67.26
2022-11-10T19:53:58.999Z,67.42
2022-11-10T19:57:20.609Z,67.21
2022-11-10T20:00:47.745Z,67.14
2022-11-10T20:04:10.006Z,67.24
2022-11-10T20:07:49.907Z,67.28
2022-11-10T20:11:26.064Z,67.20
2022-11-10T20:14:47.816Z,67.22
2022-11-10T20:18:10.891Z,67.30
2022-11-10T20:21:32.204Z,67.33
2022-11-10T20:24:53.870Z,67.44
2022-11-10T20:28:15.688Z,67.34
2022-11-10T20:31:38.575Z,67.47
2022-11-10T20:35:00.697Z,67.43
2022-11-10T20:38:22.301Z,67.50
2022-11-10T20:41:44.389Z,67.55
2022-11-10T20:45:06.602Z,67.77
2022-11-10T20:48:32.904Z,67.61
2022-11-10T20:52:01.432Z,67.51
2022-11-10T20:55:51.578Z,67.65
2022-11-10T20:59:04.561Z,67.45
2022-11-10T21:02:26.723Z,67.59
2022-11-10T21:05:54.675Z,67.61
2022-11-10T21:09:16.464Z,67.43
2022-11-10T21:12:49.976Z,67.68
2022-11-10T21:16:11.518Z,67.51
2022-11-10T21:19:34.960Z,67.56
2022-11-10T21:23:02.034Z,67.54
2022-11-10T21:26:24.916Z,67.56
2022-11-10T21:29:46.719Z,67.51
2022-11-10T21:33:09.369Z,67.61
2022-11-10T21:36:31.677Z,67.63
2022-11-10T21:39:53.492Z,67.54
2022-11-10T21:43:15.153Z,67.61
2022-11-10T21:46:37.009Z,67.53
2022-11-10T21:49:59.576Z,67.72
2022-11-10T21:53:21.766Z,67.58
2022-11-10T21:56:43.717Z,67.72
2022-11-10T22:00:05.796Z,67.60
2022-11-10T22:03:28.864Z,67.56
2022-11-10T22:07:08.878Z,67.61
2022-11-10T22:10:49.370Z,67.53
2022-11-10T22:14:34.800Z,67.50
2022-11-10T22:18:14.849Z,67.36
2022-11-10T22:21:37.046Z,67.25
2022-11-10T22:24:58.626Z,67.40
2022-11-10T22:28:20.439Z,67.29
2022-11-10T22:31:42.430Z,67.33
2022-11-10T22:35:04.080Z,67.10
2022-11-10T22:38:26.404Z,67.03
2022-11-10T22:42:06.808Z,66.97
2022-11-10T22:45:28.992Z,66.87
2022-11-10T22:48:50.751Z,66.95
2022-11-10T22:52:12.317Z,66.80
2022-11-10T22:55:33.986Z,66.81
2022-11-10T22:58:59.839Z,66.79
2022-11-10T23:02:21.900Z,66.67
2022-11-10T23:05:43.527Z,66.78
2022-11-10T23:09:05.444Z,66.74
2022-11-10T23:12:26.932Z,66.68
2022-11-10T23:15:52.147Z,66.74
2022-11-10T23:19:13.734Z,66.86
2022-11-10T23:22:35.510Z,66.78
2022-11-10T23:26:07.775Z,66.68
2022-11-10T23:29:29.645Z,66.54
2022-11-10T23:32:51.365Z,66.73
2022-11-10T23:36:14.673Z,66.57
2022-11-10T23:39:36.339Z,66.54
2022-11-10T23:42:57.939Z,66.50
2022-11-10T23:46:19.474Z,66.34
2022-11-10T23:49:41.069Z,66.38
2022-11-10T23:53:02.700Z,66.27
2022-11-10T23:56:24.347Z,66.47
2022-11-10T23:59:46.088Z,66.36
